Time;durP1;ratioP1;P1;durP2;ratioP2;P2;SDS_P1;SDS_P2;PMS_P1;PMS_P2;Temp;Humidity;BMP_temperature;BMP_pressure;BME280_temperature;BME280_humidity;BME280_pressure;Samples;Min_cycle;Max_cycle;Signal;HPM_P1;HPM_P2
2022/01/20 00:02:35;;;;;;;27.80;22.40;;;;;;;2.38;68.64;99859.50;108795;1270;22134;-80
2022/01/20 00:05:27;;;;;;;27.70;23.90;;;;;;;2.40;68.46;99859.46;109009;1270;23092;-80
2022/01/20 00:28:09;;;;;;;20.80;18.60;;;;;;;2.54;68.52;99812.43;109530;1264;22432;-80
2022/01/20 00:31:10;;;;;;;23.30;20.10;;;;;;;2.53;68.58;99808.13;108993;1270;23147;-79
2022/01/20 00:33:50;;;;;;;23.60;18.60;;;;;;;2.52;68.70;99803.02;108966;1270;23777;-79
2022/01/20 00:39:42;;;;;;;20.70;18.50;;;;;;;2.57;69.00;99796.73;108120;1279;22004;-80
2022/01/20 00:42:13;;;;;;;21.90;18.70;;;;;;;2.58;69.15;99803.71;107872;1285;22289;-80
2022/01/20 00:44:46;;;;;;;22.90;19.50;;;;;;;2.58;69.17;99802.50;107812;1286;22098;-80
2022/01/20 00:47:18;;;;;;;21.80;18.20;;;;;;;2.59;69.24;99805.39;107859;1282;22000;-80
2022/01/20 00:49:49;;;;;;;21.60;17.50;;;;;;;2.57;69.28;99801.55;108032;1282;23038;-80
2022/01/20 00:52:21;;;;;;;21.20;17.10;;;;;;;2.56;69.42;99801.09;108255;1282;22114;-80
2022/01/20 00:54:52;;;;;;;21.60;19.40;;;;;;;2.55;69.44;99802.23;108246;1282;23856;-79
2022/01/20 00:57:31;;;;;;;20.30;18.20;;;;;;;2.56;69.65;99806.49;108035;1282;24351;-80
2022/01/20 01:00:14;;;;;;;22.00;18.60;;;;;;;2.55;69.72;99806.73;107983;1282;22330;-80
2022/01/20 01:02:44;;;;;;;20.30;18.00;;;;;;;2.53;69.84;99805.84;108612;1279;24313;-80
2022/01/20 01:05:19;;;;;;;21.80;19.50;;;;;;;2.51;69.99;99800.10;108181;1283;22005;-79
2022/01/20 01:07:55;;;;;;;22.40;19.70;;;;;;;2.49;70.08;99798.39;108369;1279;22073;-80
2022/01/20 01:10:41;;;;;;;20.60;18.40;;;;;;;2.46;70.19;99802.47;108547;1277;22006;-80
2022/01/20 01:13:16;;;;;;;21.10;18.90;;;;;;;2.43;70.44;99802.37;108697;1276;23609;-80
2022/01/20 01:15:51;;;;;;;21.10;18.60;;;;;;;2.41;70.63;99800.65;108983;1273;23715;-80
2022/01/20 01:21:29;;;;;;;21.00;18.80;;;;;;;2.34;70.92;99798.77;109432;1264;21992;-80
2022/01/20 01:24:01;;;;;;;22.50;20.30;;;;;;;2.31;71.18;99794.64;109150;1264;21981;-79
2022/01/20 01:26:33;;;;;;;20.60;18.10;;;;;;;2.28;71.30;99790.40;109027;1264;21999;-79
2022/01/20 01:29:29;;;;;;;21.40;19.10;;;;;;;2.23;71.52;99791.69;109493;1264;22292;-79
2022/01/20 01:31:58;;;;;;;21.50;19.40;;;;;;;2.19;71.76;99785.98;109797;1264;22521;-80
2022/01/20 01:34:30;;;;;;;20.50;18.50;;;;;;;2.16;72.14;99781.52;109413;1265;22019;-80
2022/01/20 01:37:07;;;;;;;20.30;18.20;;;;;;;2.16;72.29;99770.11;109555;1265;21979;-79
2022/01/20 01:39:39;;;;;;;19.30;17.30;;;;;;;2.12;72.47;99765.66;109418;1264;22017;-80
2022/01/20 01:42:42;;;;;;;19.50;17.60;;;;;;;2.08;72.85;99763.48;109994;1257;21977;-79
2022/01/20 01:45:20;;;;;;;19.90;17.80;;;;;;;2.04;73.15;99758.23;109664;1258;23575;-79
2022/01/20 01:47:55;;;;;;;21.10;18.90;;;;;;;2.03;73.42;99749.48;110106;1259;21981;-80
2022/01/20 01:50:33;;;;;;;20.70;18.60;;;;;;;2.02;73.64;99744.49;109621;1262;22050;-79
2022/01/20 01:53:10;;;;;;;20.30;18.30;;;;;;;2.02;73.87;99744.11;109746;1262;21981;-79
2022/01/20 01:55:49;;;;;;;19.00;17.00;;;;;;;2.05;74.01;99741.85;109005;1266;22444;-79
2022/01/20 01:58:21;;;;;;;20.60;18.60;;;;;;;2.04;74.12;99737.20;109090;1265;21985;-78
2022/01/20 02:01:22;;;;;;;20.90;18.80;;;;;;;2.02;74.26;99736.65;108890;1267;22075;-78
2022/01/20 02:03:59;;;;;;;18.90;16.90;;;;;;;2.03;74.41;99731.23;109126;1265;23052;-78
2022/01/20 02:20:55;;;;;;;19.90;17.80;;;;;;;2.11;74.93;99693.39;108371;1276;22048;-78
2022/01/20 02:23:29;;;;;;;18.30;16.40;;;;;;;2.13;75.02;99693.54;108058;1282;22016;-79
2022/01/20 02:26:08;;;;;;;17.90;16.10;;;;;;;2.17;75.07;99690.58;107902;1282;23102;-78
2022/01/20 02:28:55;;;;;;;17.40;15.70;;;;;;;2.21;75.19;99693.02;108039;1282;22015;-78
2022/01/20 02:31:38;;;;;;;18.40;16.60;;;;;;;2.24;75.24;99694.33;108045;1282;23637;-78
2022/01/20 02:34:16;;;;;;;18.30;16.50;;;;;;;2.26;75.24;99697.28;107794;1282;22990;-79
2022/01/20 02:36:51;;;;;;;18.50;16.50;;;;;;;2.30;75.26;99693.09;107904;1282;22051;-79
2022/01/20 02:39:43;;;;;;;15.80;14.40;;;;;;;2.31;75.17;99686.95;107816;1284;22097;-78
2022/01/20 02:45:13;;;;;;;16.50;14.80;;;;;;;2.32;75.29;99678.77;108434;1273;22091;-79
2022/01/20 02:47:50;;;;;;;14.80;13.20;;;;;;;2.35;75.56;99677.91;108567;1273;23691;-79
2022/01/20 02:50:19;;;;;;;14.10;12.80;;;;;;;2.39;75.50;99677.24;108602;1273;23599;-79
2022/01/20 02:52:49;;;;;;;14.30;13.10;;;;;;;2.43;75.48;99670.70;108815;1266;23698;-79
2022/01/20 02:55:22;;;;;;;13.40;12.00;;;;;;;2.45;75.48;99669.27;108881;1270;21998;-78
2022/01/20 02:57:51;;;;;;;13.40;12.20;;;;;;;2.46;75.54;99661.50;109226;1265;21982;-79
2022/01/20 03:00:23;;;;;;;13.90;12.40;;;;;;;2.49;75.48;99659.48;108882;1268;23601;-78
2022/01/20 03:03:05;;;;;;;13.60;11.40;;;;;;;2.52;75.57;99654.73;108968;1268;24477;-78
2022/01/20 03:05:35;;;;;;;13.10;11.70;;;;;;;2.54;75.48;99650.42;108898;1269;21994;-78
2022/01/20 03:08:12;;;;;;;11.40;10.40;;;;;;;2.55;75.53;99645.23;108409;1276;23590;-78
2022/01/20 03:10:52;;;;;;;11.50;10.50;;;;;;;2.57;75.60;99644.72;108376;1276;22043;-79
2022/01/20 03:13:27;;;;;;;10.70;9.70;;;;;;;2.58;75.59;99648.95;108284;1276;22005;-79
2022/01/20 03:16:01;;;;;;;12.10;10.90;;;;;;;2.60;75.58;99646.79;108320;1279;21996;-78
2022/01/20 03:18:37;;;;;;;10.30;9.20;;;;;;;2.60;75.62;99652.83;108238;1273;23777;-79
2022/01/20 03:21:21;;;;;;;9.10;8.20;;;;;;;2.63;75.65;99653.13;109030;1270;22037;-79
2022/01/20 03:23:52;;;;;;;9.70;8.90;;;;;;;2.67;75.82;99656.38;108963;1270;23089;-81
2022/01/20 03:26:31;;;;;;;10.20;7.80;;;;;;;2.71;75.86;99654.34;109210;1264;23630;-80
2022/01/20 03:29:09;;;;;;;9.20;8.30;;;;;;;2.73;75.73;99647.56;109453;1264;23911;-79
2022/01/20 03:31:40;;;;;;;9.40;8.50;;;;;;;2.73;75.64;99634.48;108928;1270;22782;-79
2022/01/20 03:34:13;;;;;;;9.70;8.20;;;;;;;2.73;75.68;99630.17;108446;1273;23820;-79
2022/01/20 03:36:46;;;;;;;8.40;7.60;;;;;;;2.74;75.78;99639.13;108102;1279;22014;-79
2022/01/20 03:39:28;;;;;;;8.60;7.80;;;;;;;2.74;75.64;99642.56;108328;1279;23081;-80
2022/01/20 03:41:57;;;;;;;8.10;6.90;;;;;;;2.73;75.54;99642.61;108695;1273;23735;-80
2022/01/20 03:44:44;;;;;;;7.50;6.80;;;;;;;2.71;75.58;99644.02;108730;1273;22196;-79
2022/01/20 03:47:20;;;;;;;12.50;10.80;;;;;;;2.71;75.69;99645.30;108701;1273;22005;-80
2022/01/20 03:52:38;;;;;;;9.50;7.20;;;;;;;2.73;75.52;99649.27;109363;1265;21991;-79
2022/01/20 03:55:08;;;;;;;7.40;6.60;;;;;;;2.75;75.54;99650.48;109473;1264;22040;-80
2022/01/20 03:58:00;;;;;;;;;;;;;;;2.74;75.40;99646.59;109511;1264;22370;-80
2022/01/20 04:00:55;;;;;;;7.30;6.30;;;;;;;2.67;75.51;99642.66;109484;1260;22566;-79
2022/01/20 04:03:44;;;;;;;8.10;6.30;;;;;;;2.66;75.48;99652.14;110221;1259;24414;-78
2022/01/20 04:06:27;;;;;;;8.20;6.70;;;;;;;2.66;75.44;99649.17;109229;1265;23081;-79
2022/01/20 04:09:02;;;;;;;9.10;6.20;;;;;;;2.67;75.40;99650.19;109248;1264;23690;-79
2022/01/20 04:11:44;;;;;;;7.70;6.10;;;;;;;2.69;75.40;99650.13;109443;1264;22103;-79
2022/01/20 04:14:20;;;;;;;7.60;6.30;;;;;;;2.72;75.38;99655.14;109466;1265;22022;-79
2022/01/20 04:19:38;;;;;;;8.00;6.60;;;;;;;2.75;75.26;99659.86;109242;1264;23875;-79
2022/01/20 04:22:11;;;;;;;8.10;7.00;;;;;;;2.76;75.21;99665.46;108926;1268;21985;-79
2022/01/20 04:24:43;;;;;;;9.10;6.80;;;;;;;2.77;75.15;99668.67;109014;1265;23011;-79
2022/01/20 04:27:20;;;;;;;9.70;7.20;;;;;;;2.78;75.06;99671.45;108966;1265;22751;-79
2022/01/20 04:29:52;;;;;;;7.80;6.40;;;;;;;2.77;75.11;99673.45;108933;1270;22461;-80
2022/01/20 04:32:48;;;;;;;8.40;7.10;;;;;;;2.76;75.11;99691.11;109518;1267;22301;-83
2022/01/20 04:35:29;;;;;;;9.10;4.60;;;;;;;2.71;74.96;99709.93;109119;1273;21995;-79
2022/01/20 04:38:32;;;;;;;6.40;3.50;;;;;;;2.66;74.64;99704.66;109005;1279;22036;-81
2022/01/20 04:41:33;;;;;;;3.20;2.00;;;;;;;2.54;74.03;99691.57;108860;1279;22013;-80
2022/01/20 04:44:43;;;;;;;3.40;2.20;;;;;;;2.38;73.55;99680.09;109049;1279;22031;-80
2022/01/20 04:47:42;;;;;;;4.70;2.10;;;;;;;2.21;73.31;99672.67;109218;1270;22002;-81
2022/01/20 04:59:21;;;;;;;9.20;2.10;;;;;;;1.85;73.34;99675.39;109420;1265;21981;-78
2022/01/20 05:01:53;;;;;;;;;;;;;;;1.81;73.37;99676.63;109478;1262;21971;-78
2022/01/20 05:04:36;;;;;;;4.70;2.40;;;;;;;1.74;73.55;99678.21;109711;1263;21977;-78
2022/01/20 05:07:34;;;;;;;11.80;4.10;;;;;;;1.73;73.58;99683.37;109509;1262;23601;-79
2022/01/20 05:10:16;;;;;;;7.70;4.70;;;;;;;1.79;73.49;99683.39;109334;1263;23190;-77
2022/01/20 05:15:59;;;;;;;;;;;;;;;;;;;;;
2022/01/20 05:18:30;;;;;;;9.20;3.90;;;;;;;1.90;73.12;99683.31;109627;1264;22749;-78
2022/01/20 05:21:03;;;;;;;6.80;3.40;;;;;;;1.95;73.03;99685.00;108818;1270;22015;-78
2022/01/20 05:23:37;;;;;;;5.90;3.50;;;;;;;2.00;73.02;99673.83;108800;1270;21988;-78
2022/01/20 05:26:10;;;;;;;6.70;4.00;;;;;;;2.04;72.87;99676.43;108962;1268;23693;-79
2022/01/20 05:28:43;;;;;;;10.80;6.20;;;;;;;2.07;72.72;99678.38;108473;1276;22008;-79
2022/01/20 05:31:22;;;;;;;15.40;8.00;;;;;;;2.10;72.68;99677.95;108453;1276;23802;-79
2022/01/20 05:33:56;;;;;;;17.80;9.70;;;;;;;2.13;72.48;99673.55;108486;1276;22877;-78
2022/01/20 05:36:43;;;;;;;17.40;9.30;;;;;;;2.15;72.22;99676.01;108799;1273;22232;-78
2022/01/20 05:39:25;;;;;;;23.80;12.50;;;;;;;2.13;72.05;99678.94;109098;1267;23075;-79
2022/01/20 05:42:05;;;;;;;25.80;13.80;;;;;;;2.10;71.85;99678.89;109197;1267;23638;-79
2022/01/20 05:44:45;;;;;;;20.30;10.00;;;;;;;2.07;71.79;99674.61;109048;1264;21996;-79
2022/01/20 05:47:26;;;;;;;18.80;9.10;;;;;;;2.03;71.69;99670.20;109558;1260;23095;-81
2022/01/20 05:50:34;;;;;;;17.60;9.20;;;;;;;2.00;71.62;99668.23;109566;1267;22760;-78
2022/01/20 05:53:07;;;;;;;13.90;6.10;;;;;;;2.00;71.47;99667.75;108804;1273;23061;-80
2022/01/20 05:55:48;;;;;;;12.30;5.10;;;;;;;1.99;71.16;99666.10;108772;1273;22037;-79
2022/01/20 05:58:19;;;;;;;13.90;5.30;;;;;;;1.98;70.97;99659.41;108813;1273;22074;-78
2022/01/20 06:00:51;;;;;;;12.90;5.50;;;;;;;1.98;70.85;99654.14;108433;1276;22117;-79
2022/01/20 06:03:37;;;;;;;13.00;5.40;;;;;;;1.96;70.54;99656.60;108350;1277;21997;-78
2022/01/20 06:06:12;;;;;;;10.30;4.10;;;;;;;1.91;70.47;99660.30;108642;1276;22058;-79
2022/01/20 06:08:53;;;;;;;13.60;4.20;;;;;;;1.88;70.52;99655.52;108140;1284;22006;-80
2022/01/20 06:11:27;;;;;;;13.60;4.70;;;;;;;1.83;70.39;99653.19;108230;1279;22018;-79
2022/01/20 06:14:30;;;;;;;11.90;3.90;;;;;;;1.77;70.38;99658.17;108329;1279;23109;-80
2022/01/20 06:17:13;;;;;;;9.10;3.70;;;;;;;1.72;70.43;99653.27;107711;1285;22814;-79
2022/01/20 06:19:54;;;;;;;11.90;4.60;;;;;;;1.68;70.45;99645.92;108070;1282;21971;-78
2022/01/20 06:22:41;;;;;;;8.60;4.40;;;;;;;1.65;70.41;99642.34;108175;1285;22681;-80
2022/01/20 06:25:28;;;;;;;14.80;5.80;;;;;;;1.61;70.54;99642.16;108139;1285;22016;-79
2022/01/20 06:28:11;;;;;;;11.70;4.80;;;;;;;1.57;70.60;99643.34;108746;1273;23626;-78
2022/01/20 06:30:45;;;;;;;12.60;5.90;;;;;;;1.56;70.83;99638.65;108786;1271;23657;-78
2022/01/20 06:33:22;;;;;;;21.10;7.70;;;;;;;1.55;71.00;99636.11;108595;1271;21993;-79
2022/01/20 06:36:15;;;;;;;7.20;4.80;;;;;;;1.51;71.00;99623.54;109165;1270;22014;-79
2022/01/20 06:39:04;;;;;;;15.00;7.30;;;;;;;1.47;71.05;99613.37;108916;1271;23716;-79
2022/01/20 06:41:55;;;;;;;21.40;7.50;;;;;;;1.42;71.20;99607.27;108731;1273;22012;-79
2022/01/20 06:44:28;;;;;;;16.40;8.20;;;;;;;1.40;71.36;99605.91;108448;1276;22014;-79
2022/01/20 06:47:07;;;;;;;15.70;8.40;;;;;;;1.35;71.43;99601.93;108617;1279;22001;-80
2022/01/20 06:49:42;;;;;;;16.00;7.40;;;;;;;1.33;71.65;99601.67;108126;1280;22546;-80
2022/01/20 06:52:19;;;;;;;13.60;6.10;;;;;;;1.33;71.82;99605.13;108185;1279;22884;-79
2022/01/20 06:54:52;;;;;;;15.90;7.80;;;;;;;1.32;72.02;99608.81;108735;1273;22015;-80
2022/01/20 06:57:29;;;;;;;15.40;7.20;;;;;;;1.31;72.01;99606.34;108410;1279;22011;-80
2022/01/20 07:00:32;;;;;;;13.10;7.50;;;;;;;1.29;72.23;99615.12;108929;1273;23665;-80
2022/01/20 07:03:17;;;;;;;15.80;7.40;;;;;;;1.31;72.45;99613.41;108502;1276;21982;-78
2022/01/20 07:06:13;;;;;;;16.00;7.20;;;;;;;1.34;72.63;99609.87;108356;1276;23667;-79
2022/01/20 07:09:10;;;;;;;19.30;7.90;;;;;;;1.39;72.92;99610.14;108415;1276;21999;-79
2022/01/20 07:11:46;;;;;;;23.10;9.10;;;;;;;1.49;72.98;99617.19;108516;1273;21994;-82
2022/01/20 07:14:16;;;;;;;23.60;9.90;;;;;;;1.55;72.98;99614.95;108704;1273;22419;-80
2022/01/20 07:16:48;;;;;;;40.20;22.40;;;;;;;1.61;72.92;99608.80;108735;1273;23800;-79
2022/01/20 07:19:21;;;;;;;27.70;14.40;;;;;;;1.64;72.75;99599.01;108876;1273;21996;-80
2022/01/20 07:21:50;;;;;;;28.50;17.80;;;;;;;1.67;72.70;99588.61;108416;1273;22885;-78
2022/01/20 07:24:22;;;;;;;;;;;;;;;1.69;72.69;99587.54;108710;1273;22783;-79
2022/01/20 07:26:52;;;;;;;29.00;16.50;;;;;;;1.65;72.81;99585.58;109052;1268;22042;-79
2022/01/20 07:29:30;;;;;;;41.40;26.20;;;;;;;1.69;72.92;99577.60;109340;1264;22124;-79
2022/01/20 07:32:06;;;;;;;32.40;19.20;;;;;;;1.78;72.95;99577.52;109004;1267;22101;-79
2022/01/20 07:34:49;;;;;;;20.10;10.70;;;;;;;1.85;72.76;99581.48;109026;1268;22058;-81
2022/01/20 07:37:18;;;;;;;25.90;13.00;;;;;;;1.88;72.71;99584.81;109326;1267;22104;-78
2022/01/20 07:39:48;;;;;;;24.30;11.10;;;;;;;1.91;72.65;99610.45;109681;1260;21993;-80
2022/01/20 07:42:17;;;;;;;30.10;12.50;;;;;;;1.89;72.38;99654.95;109982;1261;22202;-79
2022/01/20 07:45:22;;;;;;;18.70;9.20;;;;;;;1.60;71.52;99688.45;109440;1267;22365;-80
2022/01/20 07:48:13;;;;;;;22.90;10.90;;;;;;;1.16;71.11;99690.11;109603;1267;23627;-80
2022/01/20 07:50:50;;;;;;;19.10;11.50;;;;;;;0.84;71.45;99692.11;109258;1267;23599;-79
2022/01/20 07:53:33;;;;;;;11.30;6.00;;;;;;;0.61;71.99;99699.54;109460;1267;22018;-79
2022/01/20 07:56:05;;;;;;;9.40;4.90;;;;;;;0.40;72.34;99707.84;108861;1270;21988;-78
2022/01/20 07:58:36;;;;;;;9.10;4.10;;;;;;;0.24;72.71;99711.52;108516;1276;23050;-78
2022/01/20 08:01:08;;;;;;;10.00;5.40;;;;;;;0.12;73.27;99712.79;108430;1276;22121;-79
2022/01/20 08:03:50;;;;;;;11.00;6.50;;;;;;;0.04;73.61;99717.20;108793;1276;21991;-81
2022/01/20 08:06:23;;;;;;;15.30;9.40;;;;;;;-0.04;73.87;99719.88;108677;1276;22013;-81
2022/01/20 08:09:01;;;;;;;12.40;4.60;;;;;;;-0.13;74.15;99715.70;108394;1283;22009;-79
2022/01/20 08:11:48;;;;;;;8.10;3.90;;;;;;;-0.21;74.31;99709.60;108096;1279;23704;-79
2022/01/20 08:14:35;;;;;;;7.90;4.80;;;;;;;-0.28;74.59;99698.65;108437;1276;22476;-82
2022/01/20 08:17:05;;;;;;;11.60;5.50;;;;;;;-0.27;75.03;99688.37;108882;1270;22669;-83
2022/01/20 08:19:44;;;;;;;13.20;7.00;;;;;;;-0.21;75.34;99684.70;108765;1273;24338;-80
2022/01/20 08:22:18;;;;;;;12.90;6.90;;;;;;;-0.17;75.45;99693.03;109138;1270;22313;-82
2022/01/20 08:25:20;;;;;;;16.70;6.60;;;;;;;-0.15;75.60;99693.70;109135;1270;23065;-80
2022/01/20 08:28:00;;;;;;;17.00;8.20;;;;;;;-0.12;75.64;99685.34;109427;1265;22475;-81
2022/01/20 08:30:33;;;;;;;15.30;8.40;;;;;;;-0.09;75.77;99680.83;109339;1264;22022;-82
2022/01/20 08:33:07;;;;;;;19.40;8.10;;;;;;;-0.08;75.65;99677.95;109528;1264;22026;-82
2022/01/20 08:35:51;;;;;;;23.50;12.90;;;;;;;-0.09;75.49;99683.23;109573;1264;21987;-82
2022/01/20 08:38:29;;;;;;;20.10;11.90;;;;;;;-0.09;75.64;99686.67;109935;1259;23630;-81
2022/01/20 08:40:59;;;;;;;18.50;10.60;;;;;;;-0.08;75.54;99693.20;109998;1260;21978;-80
2022/01/20 08:43:36;;;;;;;26.40;15.50;;;;;;;-0.09;75.43;99683.59;109877;1260;21966;-81
2022/01/20 08:46:21;;;;;;;27.50;13.10;;;;;;;-0.10;75.49;99668.77;110015;1260;24378;-81
2022/01/20 08:48:54;;;;;;;20.10;11.90;;;;;;;-0.10;75.58;99655.27;110262;1260;21972;-82
2022/01/20 08:51:30;;;;;;;13.30;9.20;;;;;;;-0.12;75.46;99650.55;110055;1260;22005;-79
2022/01/20 08:54:27;;;;;;;15.30;9.00;;;;;;;-0.10;75.66;99653.92;110437;1259;21971;-83
2022/01/20 08:57:18;;;;;;;17.10;8.00;;;;;;;-0.05;75.79;99660.45;110179;1259;23624;-80
2022/01/20 08:59:48;;;;;;;15.10;8.10;;;;;;;0.02;76.06;99659.18;110077;1260;21975;-80
2022/01/20 09:02:30;;;;;;;10.40;7.30;;;;;;;0.18;76.66;99663.48;110415;1258;23009;-82
2022/01/20 09:05:03;;;;;;;24.80;8.30;;;;;;;0.32;76.38;99668.14;110222;1260;22396;-80
2022/01/20 09:07:46;;;;;;;18.90;10.30;;;;;;;0.37;75.89;99670.73;110378;1257;21970;-80
2022/01/20 09:10:19;;;;;;;18.40;9.50;;;;;;;0.38;75.45;99671.70;109527;1265;22847;-81
2022/01/20 09:15:43;;;;;;;15.80;9.00;;;;;;;0.41;75.07;99680.63;109641;1263;22010;-80
2022/01/20 09:18:27;;;;;;;13.90;6.60;;;;;;;0.38;74.97;99682.92;109501;1263;21985;-79
2022/01/20 09:20:58;;;;;;;16.20;7.70;;;;;;;0.38;74.79;99685.87;109364;1265;22012;-79
2022/01/20 09:23:31;;;;;;;14.40;9.00;;;;;;;0.35;74.42;99688.69;109020;1270;22040;-80
2022/01/20 09:26:04;;;;;;;17.70;9.50;;;;;;;0.33;74.25;99682.09;109365;1273;21988;-80
2022/01/20 09:28:37;;;;;;;26.10;13.20;;;;;;;0.31;74.22;99683.98;109242;1265;21979;-79
2022/01/20 09:31:08;;;;;;;26.40;15.00;;;;;;;0.30;74.04;99682.98;109265;1266;23712;-80
2022/01/20 09:33:46;;;;;;;20.90;11.40;;;;;;;0.32;73.97;99686.18;109495;1267;23095;-82
2022/01/20 09:36:17;;;;;;;14.60;9.40;;;;;;;0.39;74.05;99687.34;109604;1266;22459;-80
2022/01/20 09:38:49;;;;;;;11.30;5.60;;;;;;;0.54;74.33;99693.16;109199;1267;23713;-80
2022/01/20 09:41:35;;;;;;;13.60;6.10;;;;;;;0.74;74.45;99692.25;109643;1260;24015;-82
2022/01/20 09:44:08;;;;;;;14.50;5.90;;;;;;;0.94;74.33;99692.08;109807;1265;22385;-82
2022/01/20 09:46:41;;;;;;;14.00;8.20;;;;;;;1.06;73.54;99700.42;109097;1273;21995;-82
2022/01/20 09:49:37;;;;;;;17.90;8.40;;;;;;;1.12;72.99;99698.92;108805;1273;21997;-81
2022/01/20 09:52:16;;;;;;;14.70;6.70;;;;;;;1.13;72.42;99694.31;108725;1276;21995;-81
2022/01/20 09:54:50;;;;;;;10.90;5.00;;;;;;;1.08;71.59;99689.23;108730;1276;22008;-81
2022/01/20 09:57:22;;;;;;;;;;;;;;;1.02;71.43;99683.08;108426;1279;22105;-81
2022/01/20 09:59:53;;;;;;;9.60;5.70;;;;;;;0.94;71.59;99693.04;108254;1285;23637;-82
2022/01/20 10:02:23;;;;;;;10.00;6.40;;;;;;;0.91;71.65;99696.21;108412;1280;22977;-82
2022/01/20 10:05:02;;;;;;;13.20;6.00;;;;;;;0.93;71.64;99701.63;108720;1273;23719;-82
2022/01/20 10:07:40;;;;;;;22.50;10.80;;;;;;;0.91;71.47;99708.52;108908;1273;22850;-82
2022/01/20 10:10:23;;;;;;;16.20;7.40;;;;;;;0.88;71.24;99709.01;108923;1273;23767;-82
2022/01/20 10:13:11;;;;;;;20.40;8.40;;;;;;;0.86;71.13;99707.58;109042;1271;21976;-83
2022/01/20 10:16:19;;;;;;;20.00;10.40;;;;;;;0.86;71.12;99707.95;109527;1265;22032;-82
2022/01/20 10:19:00;;;;;;;15.30;8.00;;;;;;;0.85;70.91;99698.85;109587;1266;22044;-81
2022/01/20 10:21:39;;;;;;;13.10;7.60;;;;;;;0.89;71.29;99704.05;109503;1266;22478;-82
2022/01/20 10:24:27;;;;;;;12.40;7.90;;;;;;;0.97;71.15;99704.96;109803;1260;23069;-82
2022/01/20 10:27:13;;;;;;;7.30;5.40;;;;;;;1.02;71.13;99704.60;110321;1258;22058;-82
2022/01/20 10:30:09;;;;;;;11.80;5.70;;;;;;;1.09;71.04;99713.06;109948;1260;21996;-81
2022/01/20 10:32:47;;;;;;;11.30;4.90;;;;;;;1.10;70.70;99713.28;110054;1261;22040;-81
2022/01/20 10:35:36;;;;;;;14.70;6.80;;;;;;;1.08;70.36;99716.41;110142;1260;23700;-81
2022/01/20 10:38:33;;;;;;;17.60;7.20;;;;;;;1.09;70.64;99721.66;109455;1264;21973;-81
2022/01/20 10:41:19;;;;;;;8.30;5.20;;;;;;;1.21;70.91;99727.33;109497;1267;24421;-81
2022/01/20 10:44:14;;;;;;;12.70;6.10;;;;;;;1.35;70.66;99724.97;109297;1267;22056;-82
2022/01/20 10:47:28;;;;;;;14.60;6.10;;;;;;;1.55;70.52;99723.89;109649;1267;22058;-84
2022/01/20 10:50:45;;;;;;;10.30;5.30;;;;;;;1.72;70.06;99727.00;109712;1266;21997;-85
2022/01/20 10:53:38;;;;;;;11.00;4.40;;;;;;;1.89;69.38;99728.73;109790;1267;22418;-84
2022/01/20 10:56:14;;;;;;;13.70;7.30;;;;;;;1.99;68.36;99729.66;110039;1259;22986;-86
2022/01/20 10:58:45;;;;;;;16.70;9.10;;;;;;;2.13;68.30;99734.85;109909;1263;22014;-82
2022/01/20 11:01:19;;;;;;;18.00;7.40;;;;;;;2.38;68.11;99734.20;109135;1270;22022;-81
2022/01/20 11:03:57;;;;;;;16.10;8.10;;;;;;;2.49;66.86;99734.27;108927;1276;22001;-82
2022/01/20 11:06:40;;;;;;;16.00;6.30;;;;;;;2.48;65.78;99743.20;108835;1273;22780;-85
2022/01/20 11:09:39;;;;;;;9.80;5.30;;;;;;;2.32;65.33;99743.73;108849;1274;23623;-84
2022/01/20 11:12:44;;;;;;;8.80;4.60;;;;;;;2.07;64.87;99740.24;108327;1279;21999;-84
2022/01/20 11:15:43;;;;;;;10.80;5.70;;;;;;;2.01;66.06;99751.39;108442;1281;22188;-82
2022/01/20 11:18:20;;;;;;;14.60;4.50;;;;;;;2.12;66.82;99754.29;108320;1283;22005;-84
2022/01/20 11:20:55;;;;;;;13.00;6.00;;;;;;;2.52;69.08;99742.69;108245;1283;22021;-84
2022/01/20 11:23:42;;;;;;;16.60;5.90;;;;;;;3.03;69.28;99754.70;108338;1284;22004;-83
2022/01/20 11:27:04;;;;;;;12.10;5.20;;;;;;;3.19;65.56;99759.36;108528;1279;22024;-84
2022/01/20 11:29:56;;;;;;;16.20;5.80;;;;;;;3.00;62.77;99755.31;108570;1279;22327;-84
2022/01/20 11:32:36;;;;;;;14.30;5.80;;;;;;;2.79;62.06;99755.01;108619;1276;22142;-82
2022/01/20 11:35:16;;;;;;;11.70;5.90;;;;;;;2.65;62.16;99757.73;108398;1280;22004;-82
2022/01/20 11:37:57;;;;;;;11.10;5.10;;;;;;;2.50;61.79;99763.75;108417;1282;22502;-82
2022/01/20 11:40:27;;;;;;;13.70;5.50;;;;;;;2.31;61.91;99756.78;108347;1282;23642;-82
2022/01/20 11:43:10;;;;;;;11.70;5.50;;;;;;;2.22;61.96;99750.83;108347;1279;23791;-83
2022/01/20 11:45:50;;;;;;;11.40;5.10;;;;;;;2.09;61.60;99740.23;108588;1279;22090;-82
2022/01/20 11:48:24;;;;;;;15.30;7.20;;;;;;;1.97;61.92;99746.13;108739;1273;22017;-82
2022/01/20 11:51:08;;;;;;;23.50;9.10;;;;;;;1.85;61.88;99743.45;108934;1273;24330;-82
2022/01/20 11:53:41;;;;;;;21.30;10.60;;;;;;;1.72;61.89;99742.48;108916;1276;22093;-83
2022/01/20 11:56:14;;;;;;;15.20;7.70;;;;;;;1.60;61.73;99745.33;108979;1270;23111;-82
2022/01/20 11:58:51;;;;;;;13.80;7.00;;;;;;;1.50;61.88;99735.77;108957;1270;23028;-83
2022/01/20 12:01:20;;;;;;;11.40;6.60;;;;;;;1.41;61.96;99731.42;109913;1259;22437;-82
2022/01/20 12:03:52;;;;;;;12.60;6.70;;;;;;;1.35;62.08;99726.91;109397;1264;21993;-82
2022/01/20 12:06:43;;;;;;;11.00;4.90;;;;;;;1.35;62.18;99724.65;109607;1264;22046;-82
2022/01/20 12:09:34;;;;;;;9.50;5.20;;;;;;;1.34;62.13;99730.59;109412;1264;24146;-81
2022/01/20 12:12:17;;;;;;;11.40;5.20;;;;;;;1.32;62.21;99731.48;109544;1264;22391;-81
2022/01/20 12:15:11;;;;;;;13.30;6.30;;;;;;;1.29;62.12;99737.98;109340;1264;22046;-82
2022/01/20 12:17:55;;;;;;;14.30;5.20;;;;;;;1.24;62.06;99733.20;109360;1264;21998;-83
2022/01/20 12:20:26;;;;;;;12.80;6.30;;;;;;;1.16;62.03;99731.52;109407;1263;21991;-83
2022/01/20 12:22:57;;;;;;;14.30;6.80;;;;;;;1.13;62.30;99736.95;110266;1257;23698;-84
2022/01/20 12:25:29;;;;;;;17.70;6.50;;;;;;;1.11;62.27;99741.80;109741;1263;22259;-83
2022/01/20 12:28:09;;;;;;;13.50;6.70;;;;;;;1.06;62.12;99739.99;109640;1263;21992;-83
2022/01/20 12:30:52;;;;;;;19.60;10.20;;;;;;;0.99;61.94;99740.01;109642;1263;22039;-82
2022/01/20 12:33:27;;;;;;;26.20;9.20;;;;;;;0.94;62.01;99738.86;109314;1269;22101;-83
2022/01/20 12:36:03;;;;;;;34.20;17.00;;;;;;;0.90;62.19;99736.93;109379;1267;23637;-82
2022/01/20 12:38:39;;;;;;;19.10;8.60;;;;;;;0.87;62.26;99735.91;109335;1264;23112;-82
2022/01/20 12:41:17;;;;;;;13.10;7.30;;;;;;;0.87;62.46;99730.90;109262;1267;23767;-82
2022/01/20 12:44:05;;;;;;;17.20;6.80;;;;;;;0.86;62.49;99730.64;109428;1263;23049;-80
2022/01/20 12:46:39;;;;;;;14.90;7.10;;;;;;;0.87;62.81;99731.05;109739;1263;22061;-82
2022/01/20 12:49:12;;;;;;;13.10;5.90;;;;;;;0.91;62.84;99727.66;109370;1263;23192;-83
2022/01/20 12:51:51;;;;;;;12.40;5.70;;;;;;;0.90;62.55;99733.75;109224;1267;21986;-82
2022/01/20 12:54:33;;;;;;;14.40;5.80;;;;;;;0.88;62.54;99734.13;109575;1267;21992;-82
2022/01/20 12:57:13;;;;;;;10.30;4.80;;;;;;;0.88;62.52;99731.86;109373;1265;22283;-82
2022/01/20 12:59:45;;;;;;;12.00;4.30;;;;;;;0.86;62.40;99731.99;109731;1263;22077;-82
2022/01/20 13:02:27;;;;;;;12.50;5.60;;;;;;;0.85;62.32;99739.94;109547;1263;22105;-83
2022/01/20 13:05:05;;;;;;;11.20;5.20;;;;;;;0.83;62.41;99733.45;109359;1267;23062;-83
2022/01/20 13:07:37;;;;;;;11.00;5.00;;;;;;;0.82;62.50;99726.26;109208;1270;23853;-82
2022/01/20 13:10:33;;;;;;;11.50;4.90;;;;;;;0.80;62.48;99728.30;109294;1270;22000;-82
2022/01/20 13:13:05;;;;;;;14.10;5.90;;;;;;;0.78;62.42;99730.77;109311;1270;22058;-83
2022/01/20 13:15:35;;;;;;;13.20;5.40;;;;;;;0.78;62.52;99738.36;109230;1267;22982;-82
2022/01/20 13:18:12;;;;;;;9.70;4.90;;;;;;;0.76;62.41;99742.17;109651;1264;22442;-84
2022/01/20 13:20:54;;;;;;;16.50;5.90;;;;;;;0.76;62.42;99739.94;109449;1264;22045;-83
2022/01/20 13:26:08;;;;;;;21.20;7.70;;;;;;;0.89;62.74;99733.64;109285;1267;22952;-84
2022/01/20 13:28:39;;;;;;;17.50;7.00;;;;;;;0.99;62.74;99744.55;109348;1270;21989;-83
2022/01/20 13:31:15;;;;;;;14.30;6.10;;;;;;;1.06;62.54;99748.46;109470;1266;21991;-83
2022/01/20 13:33:50;;;;;;;15.20;7.50;;;;;;;1.08;62.29;99751.98;109705;1270;22001;-83